createdAt,value
2022-09-02T00:01:25.740Z,22.21
2022-09-02T00:03:57.599Z,22.20
2022-09-02T00:06:26.257Z,22.17
2022-09-02T00:08:54.121Z,22.15
2022-09-02T00:11:25.576Z,22.12
2022-09-02T00:13:55.744Z,22.11
2022-09-02T00:16:25.055Z,22.09
2022-09-02T00:18:54.351Z,22.08
2022-09-02T00:21:22.910Z,22.05
2022-09-02T00:23:51.187Z,22.05
2022-09-02T00:26:19.202Z,22.02
2022-09-02T00:28:51.047Z,22.02
2022-09-02T00:31:26.195Z,22.00
2022-09-02T00:33:54.517Z,21.91
2022-09-02T00:36:22.792Z,21.96
2022-09-02T00:38:50.531Z,21.93
2022-09-02T00:41:21.773Z,21.92
2022-09-02T00:43:51.755Z,21.90
2022-09-02T00:46:21.730Z,21.90
2022-09-02T00:48:57.042Z,21.87
2022-09-02T00:51:25.509Z,21.86
2022-09-02T00:53:54.019Z,21.85
2022-09-02T00:56:24.451Z,21.83
2022-09-02T00:58:54.163Z,21.82
2022-09-02T01:01:22.747Z,21.80
2022-09-02T01:03:52.899Z,21.79
2022-09-02T01:06:24.428Z,21.77
2022-09-02T01:08:59.444Z,21.76
2022-09-02T01:11:32.510Z,21.75
2022-09-02T01:14:01.798Z,21.73
2022-09-02T01:16:34.976Z,21.72
2022-09-02T01:19:11.629Z,21.70
2022-09-02T01:21:39.405Z,21.68
2022-09-02T01:24:09.120Z,21.67
2022-09-02T01:26:36.761Z,21.65
2022-09-02T01:29:04.634Z,21.64
2022-09-02T01:31:32.345Z,21.62
2022-09-02T01:34:00.066Z,21.62
2022-09-02T01:36:27.826Z,21.61
2022-09-02T01:38:55.699Z,21.59
2022-09-02T01:41:24.724Z,21.56
2022-09-02T01:43:52.763Z,21.55
2022-09-02T01:46:20.509Z,21.54
2022-09-02T01:48:48.214Z,21.53
2022-09-02T01:51:18.604Z,21.51
2022-09-02T01:53:46.722Z,21.51
2022-09-02T01:56:14.555Z,21.49
2022-09-02T01:58:43.671Z,21.47
2022-09-02T02:01:11.506Z,21.46
2022-09-02T02:03:39.810Z,21.44
2022-09-02T02:06:11.190Z,21.43
2022-09-02T02:08:39.722Z,21.41
2022-09-02T02:11:08.822Z,21.40
2022-09-02T02:13:36.830Z,21.40
2022-09-02T02:16:06.214Z,21.37
2022-09-02T02:18:33.955Z,21.33
2022-09-02T02:21:01.601Z,21.34
2022-09-02T02:23:29.284Z,21.34
2022-09-02T02:25:56.970Z,21.30
2022-09-02T02:28:24.738Z,21.28
2022-09-02T02:30:52.482Z,21.26
2022-09-02T02:33:21.559Z,21.26
2022-09-02T02:35:53.778Z,21.24
2022-09-02T02:38:24.065Z,21.24
2022-09-02T02:40:55.771Z,21.21
2022-09-02T02:43:23.528Z,21.20
2022-09-02T02:45:51.958Z,21.19
2022-09-02T02:48:21.037Z,21.17
2022-09-02T02:50:48.855Z,21.15
2022-09-02T02:53:17.538Z,21.14
2022-09-02T02:55:45.699Z,21.12
2022-09-02T02:58:17.824Z,21.11
2022-09-02T03:00:46.257Z,21.10
2022-09-02T03:03:14.878Z,21.07
2022-09-02T03:05:43.966Z,21.07
2022-09-02T03:08:12.129Z,21.04
2022-09-02T03:10:42.001Z,21.03
2022-09-02T03:13:11.573Z,21.02
2022-09-02T03:15:40.223Z,21.01
2022-09-02T03:18:08.395Z,20.99
2022-09-02T03:20:36.863Z,20.99
2022-09-02T03:23:05.963Z,20.98
2022-09-02T03:25:36.155Z,20.96
2022-09-02T03:28:04.913Z,20.92
2022-09-02T03:30:33.966Z,20.93
2022-09-02T03:33:04.250Z,20.93
2022-09-02T03:35:33.106Z,20.91
2022-09-02T03:38:01.558Z,20.90
2022-09-02T03:40:31.057Z,20.89
2022-09-02T03:43:00.424Z,20.87
2022-09-02T03:45:29.287Z,20.85
2022-09-02T03:47:58.662Z,20.84
2022-09-02T03:50:29.883Z,20.78
2022-09-02T03:52:59.059Z,20.81
2022-09-02T03:55:27.137Z,20.81
2022-09-02T03:57:56.296Z,20.80
2022-09-02T04:00:29.031Z,20.79
2022-09-02T04:02:57.369Z,20.76
2022-09-02T04:05:25.623Z,20.73
2022-09-02T04:07:53.332Z,20.73
2022-09-02T04:10:22.068Z,20.73
2022-09-02T04:12:50.256Z,20.71
2022-09-02T04:15:20.374Z,20.70
2022-09-02T04:17:48.166Z,20.70
2022-09-02T04:20:17.561Z,20.66
2022-09-02T04:22:45.733Z,20.64
2022-09-02T04:25:13.591Z,20.64
2022-09-02T04:27:41.686Z,20.64
2022-09-02T04:30:10.824Z,20.62
2022-09-02T04:32:40.898Z,20.60
2022-09-02T04:35:09.089Z,20.60
2022-09-02T04:37:36.730Z,20.59
2022-09-02T04:40:04.886Z,20.58
2022-09-02T04:42:32.697Z,20.56
2022-09-02T04:45:00.401Z,20.55
2022-09-02T04:47:28.182Z,20.54
2022-09-02T04:49:58.429Z,20.53
2022-09-02T04:52:26.562Z,20.52
2022-09-02T04:54:54.221Z,20.50
2022-09-02T04:57:22.400Z,20.51
2022-09-02T04:59:50.083Z,20.49
2022-09-02T05:02:18.281Z,20.48
2022-09-02T05:04:46.234Z,20.48
2022-09-02T05:07:16.075Z,20.43
2022-09-02T05:09:44.369Z,20.44
2022-09-02T05:12:12.092Z,20.44
2022-09-02T05:14:40.350Z,20.42
2022-09-02T05:17:08.152Z,20.43
2022-09-02T05:19:35.953Z,20.42
2022-09-02T05:22:05.023Z,20.41
2022-09-02T05:24:34.167Z,20.41
2022-09-02T05:27:01.895Z,20.40
2022-09-02T05:29:29.605Z,20.40
2022-09-02T05:31:57.466Z,20.39
2022-09-02T05:34:25.206Z,20.39
2022-09-02T05:36:53.860Z,20.37
2022-09-02T05:39:21.734Z,20.38
2022-09-02T05:41:50.878Z,20.35
2022-09-02T05:44:18.691Z,20.35
2022-09-02T05:46:48.952Z,20.36
2022-09-02T05:49:18.255Z,20.35
2022-09-02T05:51:48.054Z,20.34
2022-09-02T05:54:19.046Z,20.33
2022-09-02T05:56:48.903Z,20.31
2022-09-02T05:59:18.937Z,20.31
2022-09-02T06:01:46.986Z,20.29
2022-09-02T06:04:15.526Z,20.29
2022-09-02T06:06:43.581Z,20.30
2022-09-02T06:09:14.609Z,20.29
2022-09-02T06:11:44.618Z,20.29
2022-09-02T06:14:13.944Z,20.28
2022-09-02T06:16:43.937Z,20.26
2022-09-02T06:19:13.570Z,20.27
2022-09-02T06:21:44.267Z,20.23
2022-09-02T06:24:13.302Z,20.26
2022-09-02T06:26:42.549Z,20.24
2022-09-02T06:29:11.409Z,20.22
2022-09-02T06:31:43.968Z,20.25
2022-09-02T06:34:13.686Z,20.25
2022-09-02T06:36:42.843Z,20.16
2022-09-02T06:39:12.901Z,20.25
2022-09-02T06:41:42.571Z,20.15
2022-09-02T06:44:11.907Z,20.24
2022-09-02T06:46:47.782Z,20.24
2022-09-02T06:49:16.864Z,20.24
2022-09-02T06:51:47.007Z,20.25
2022-09-02T06:54:16.926Z,20.23
2022-09-02T06:56:49.199Z,20.23
2022-09-02T06:59:18.046Z,20.23
2022-09-02T07:01:47.607Z,20.23
2022-09-02T07:04:33.431Z,20.24
2022-09-02T07:07:01.119Z,20.22
2022-09-02T07:09:31.261Z,20.23
2022-09-02T07:12:04.215Z,20.25
2022-09-02T07:14:36.963Z,20.25
2022-09-02T07:17:07.037Z,20.25
2022-09-02T07:19:34.816Z,20.26
2022-09-02T07:22:03.993Z,20.23
2022-09-02T07:24:31.788Z,20.25
2022-09-02T07:26:59.510Z,20.25
2022-09-02T07:29:27.220Z,20.27
2022-09-02T07:31:54.933Z,20.26
2022-09-02T07:34:24.102Z,20.27
2022-09-02T07:36:52.592Z,20.27
2022-09-02T07:39:21.081Z,20.25
2022-09-02T07:41:50.725Z,20.27
2022-09-02T07:44:19.767Z,20.28
2022-09-02T07:46:47.802Z,20.28
2022-09-02T07:49:20.836Z,20.29
2022-09-02T07:51:52.807Z,20.28
2022-09-02T07:54:23.187Z,20.28
2022-09-02T07:56:51.179Z,20.28
2022-09-02T07:59:21.231Z,20.29
2022-09-02T08:01:49.372Z,20.29
2022-09-02T08:04:18.689Z,20.29
2022-09-02T08:06:46.755Z,20.29
2022-09-02T08:09:15.880Z,20.29
2022-09-02T08:11:46.540Z,20.29
2022-09-02T08:14:19.082Z,20.30
2022-09-02T08:16:48.283Z,20.30
2022-09-02T08:19:16.369Z,20.31
2022-09-02T08:21:44.161Z,20.31
2022-09-02T08:24:11.892Z,20.31
2022-09-02T08:26:41.084Z,20.31
2022-09-02T08:29:10.175Z,20.33
2022-09-02T08:31:38.829Z,20.33
2022-09-02T08:34:06.949Z,20.34
2022-09-02T08:36:34.671Z,20.34
2022-09-02T08:39:04.700Z,20.35
2022-09-02T08:41:39.986Z,20.36
2022-09-02T08:44:14.914Z,20.37
2022-09-02T08:46:42.790Z,20.37
2022-09-02T08:49:17.054Z,20.39
2022-09-02T08:51:52.853Z,20.41
2022-09-02T08:54:27.338Z,20.41
2022-09-02T08:56:56.305Z,20.41
2022-09-02T08:59:27.700Z,20.44
2022-09-02T09:02:01.220Z,20.44
2022-09-02T09:04:54.634Z,20.46
2022-09-02T09:07:30.763Z,20.48
2022-09-02T09:10:09.708Z,20.48
2022-09-02T09:12:52.440Z,20.50
2022-09-02T09:15:31.817Z,20.50
2022-09-02T09:18:01.810Z,20.51
2022-09-02T09:20:32.959Z,20.53
2022-09-02T09:23:03.082Z,20.54
2022-09-02T09:25:31.006Z,20.55
2022-09-02T09:27:59.043Z,20.55
2022-09-02T09:30:28.999Z,20.57
2022-09-02T09:32:59.983Z,20.58
2022-09-02T09:35:29.663Z,20.60
2022-09-02T09:37:57.597Z,20.60
2022-09-02T09:40:31.925Z,20.60
2022-09-02T09:43:14.534Z,20.64
2022-09-02T09:45:46.165Z,20.66
2022-09-02T09:48:23.070Z,20.68
2022-09-02T09:51:11.535Z,20.70
2022-09-02T09:53:39.805Z,20.73
2022-09-02T09:56:08.890Z,20.75
2022-09-02T09:58:44.633Z,20.76
2022-09-02T10:01:16.040Z,20.79
2022-09-02T10:03:49.622Z,20.79
2022-09-02T10:06:23.409Z,20.82
2022-09-02T10:08:56.974Z,20.86
2022-09-02T10:11:26.803Z,20.87
2022-09-02T10:14:00.646Z,20.90
2022-09-02T10:16:54.379Z,20.92
2022-09-02T10:19:28.287Z,20.94
2022-09-02T10:22:38.503Z,20.97
2022-09-02T10:25:30.430Z,21.01
2022-09-02T10:28:07.581Z,21.01
2022-09-02T10:30:44.111Z,21.07
2022-09-02T10:33:20.657Z,21.11
2022-09-02T10:35:53.132Z,21.14
2022-09-02T10:38:37.163Z,21.20
2022-09-02T10:41:20.194Z,21.24
2022-09-02T10:44:00.844Z,21.28
2022-09-02T10:46:38.036Z,21.32
2022-09-02T10:49:19.573Z,21.37
2022-09-02T10:51:56.554Z,21.41
2022-09-02T10:54:37.713Z,21.47
2022-09-02T10:57:11.290Z,21.51
2022-09-02T10:59:44.731Z,21.55
2022-09-02T11:02:19.002Z,21.60
2022-09-02T11:04:52.964Z,21.64
2022-09-02T11:07:28.690Z,21.70
2022-09-02T11:10:00.649Z,21.74
2022-09-02T11:12:33.961Z,21.78
2022-09-02T11:15:10.952Z,21.84
2022-09-02T11:17:43.323Z,21.89
2022-09-02T11:20:19.051Z,21.93
2022-09-02T11:22:54.605Z,22.00
2022-09-02T11:25:25.456Z,22.05
2022-09-02T11:28:00.551Z,22.11
2022-09-02T11:30:37.039Z,22.17
2022-09-02T11:33:17.315Z,22.24
2022-09-02T11:35:46.525Z,22.29
2022-09-02T11:38:31.266Z,22.36
2022-09-02T11:44:30.934Z,22.46
2022-09-02T11:47:10.050Z,22.51
2022-09-02T11:50:02.648Z,22.54
2022-09-02T11:52:46.001Z,22.58
2022-09-02T11:55:18.757Z,22.64
2022-09-02T11:57:54.153Z,22.69
2022-09-02T12:00:31.864Z,22.73
2022-09-02T12:03:28.479Z,22.78
2022-09-02T12:06:11.053Z,22.84
2022-09-02T12:09:13.159Z,22.88
2022-09-02T12:11:48.450Z,22.90
2022-09-02T12:14:56.026Z,23.00
2022-09-02T12:17:46.223Z,23.08
2022-09-02T12:20:52.292Z,23.14
2022-09-02T12:23:57.720Z,23.16
2022-09-02T12:26:29.304Z,23.20
2022-09-02T12:29:12.909Z,23.22
2022-09-02T12:34:40.392Z,23.32
2022-09-02T12:37:08.153Z,23.37
2022-09-02T12:39:57.020Z,23.44
2022-09-02T12:42:33.363Z,23.49
2022-09-02T12:45:05.906Z,23.53
2022-09-02T12:47:47.802Z,23.58
2022-09-02T12:50:23.331Z,23.62
2022-09-02T12:52:52.542Z,23.65
2022-09-02T12:55:24.966Z,23.71
2022-09-02T12:57:56.867Z,23.74
2022-09-02T13:00:34.627Z,23.75
2022-09-02T13:03:22.713Z,23.78
2022-09-02T13:05:57.187Z,23.82
2022-09-02T13:09:15.523Z,23.85
2022-09-02T13:12:18.351Z,23.86
2022-09-02T13:15:04.122Z,23.89
2022-09-02T13:18:11.414Z,23.90
2022-09-02T13:21:05.435Z,23.93
2022-09-02T13:24:14.210Z,23.97
2022-09-02T13:27:12.442Z,24.02
2022-09-02T13:30:01.874Z,24.06
2022-09-02T13:32:31.541Z,24.10
2022-09-02T13:35:03.374Z,24.13
2022-09-02T13:37:33.551Z,24.14
2022-09-02T13:40:05.061Z,24.15
2022-09-02T13:42:33.293Z,24.18
2022-09-02T13:45:14.243Z,24.20
2022-09-02T13:47:46.481Z,24.25
2022-09-02T13:50:18.795Z,24.29
2022-09-02T13:54:05.134Z,24.30
2022-09-02T13:55:39.516Z,24.32
2022-09-02T13:58:18.846Z,24.31
2022-09-02T14:00:48.301Z,24.32
2022-09-02T14:03:19.183Z,24.33
2022-09-02T14:05:49.315Z,24.36
2022-09-02T14:08:22.685Z,24.36
2022-09-02T14:10:52.724Z,24.38
2022-09-02T14:13:21.509Z,24.40
2022-09-02T14:15:50.697Z,24.43
2022-09-02T14:18:20.321Z,24.47
2022-09-02T14:21:00.105Z,24.49
2022-09-02T14:23:33.375Z,24.49
2022-09-02T14:26:03.365Z,24.50
2022-09-02T14:28:34.468Z,24.51
2022-09-02T14:31:06.083Z,24.55
2022-09-02T14:33:42.499Z,24.57
2022-09-02T14:36:14.007Z,24.58
2022-09-02T14:38:52.385Z,24.59
2022-09-02T14:41:23.330Z,24.61
2022-09-02T14:43:53.968Z,24.59
2022-09-02T14:46:29.482Z,24.63
2022-09-02T14:49:02.693Z,24.64
2022-09-02T14:51:37.207Z,24.68
2022-09-02T14:54:06.135Z,24.69
2022-09-02T14:56:51.529Z,24.71
2022-09-02T14:59:20.721Z,24.72
2022-09-02T15:01:52.079Z,24.73
2022-09-02T15:04:20.527Z,24.77
2022-09-02T15:06:49.086Z,24.78
2022-09-02T15:09:17.290Z,24.80
2022-09-02T15:11:49.366Z,24.81
2022-09-02T15:14:17.053Z,24.83
2022-09-02T15:16:44.743Z,24.83
2022-09-02T15:19:14.392Z,24.84
2022-09-02T15:21:42.069Z,24.86
2022-09-02T15:24:09.830Z,24.90
2022-09-02T15:26:37.554Z,24.95
2022-09-02T15:29:05.252Z,24.98
2022-09-02T15:31:33.000Z,24.99
2022-09-02T15:34:02.345Z,24.98
2022-09-02T15:36:31.416Z,24.98
2022-09-02T15:39:00.334Z,25.01
2022-09-02T15:41:31.426Z,25.02
2022-09-02T15:44:00.515Z,25.02
2022-09-02T15:46:30.190Z,25.01
2022-09-02T15:49:02.846Z,25.00
2022-09-02T15:51:33.047Z,25.00
2022-09-02T15:54:02.225Z,25.00
2022-09-02T15:56:31.275Z,25.02
2022-09-02T15:58:59.926Z,25.02
2022-09-02T16:01:28.677Z,25.02
2022-09-02T16:03:56.889Z,25.03
2022-09-02T16:06:24.611Z,25.03
2022-09-02T16:08:53.636Z,25.03
2022-09-02T16:11:21.522Z,25.01
2022-09-02T16:13:49.549Z,25.01
2022-09-02T16:16:17.971Z,25.02
2022-09-02T16:18:51.177Z,25.02
2022-09-02T16:21:19.795Z,25.01
2022-09-02T16:23:49.534Z,25.01
2022-09-02T16:26:25.057Z,24.98
2022-09-02T16:28:55.515Z,24.98
2022-09-02T16:31:25.207Z,24.98
2022-09-02T16:33:53.859Z,24.97
2022-09-02T16:36:21.814Z,24.95
2022-09-02T16:38:49.539Z,24.95
2022-09-02T16:41:27.205Z,24.93
2022-09-02T16:43:55.392Z,24.93
2022-09-02T16:46:23.150Z,24.92
2022-09-02T16:48:51.187Z,24.91
2022-09-02T16:51:19.022Z,24.90
2022-09-02T16:53:47.147Z,24.89
2022-09-02T16:56:15.487Z,24.87
2022-09-02T16:58:44.623Z,24.86
2022-09-02T17:01:13.591Z,24.85
2022-09-02T17:03:41.915Z,24.80
2022-09-02T17:06:10.261Z,24.83
2022-09-02T17:08:38.423Z,24.82
2022-09-02T17:11:18.221Z,24.82
2022-09-02T17:13:47.846Z,24.81
2022-09-02T17:16:15.718Z,24.81
2022-09-02T17:18:43.469Z,24.83
2022-09-02T17:21:21.998Z,24.82
2022-09-02T17:23:50.356Z,24.83
2022-09-02T17:26:18.783Z,24.84
2022-09-02T17:28:47.899Z,24.85
2022-09-02T17:31:20.443Z,24.84
2022-09-02T17:33:48.459Z,24.83
2022-09-02T17:36:16.653Z,24.81
2022-09-02T17:38:44.958Z,24.80
2022-09-02T17:41:30.276Z,24.80
2022-09-02T17:43:59.735Z,24.79
2022-09-02T17:46:27.515Z,24.78
2022-09-02T17:49:15.782Z,24.78
2022-09-02T17:51:44.841Z,24.77
2022-09-02T17:54:13.511Z,24.77
2022-09-02T17:56:57.611Z,24.77
2022-09-02T17:59:31.216Z,24.75
2022-09-02T18:02:28.037Z,24.75
2022-09-02T18:05:03.922Z,24.73
2022-09-02T18:07:41.235Z,24.71
2022-09-02T18:10:08.958Z,24.74
2022-09-02T18:12:37.961Z,24.72
2022-09-02T18:15:08.356Z,24.71
2022-09-02T18:17:38.055Z,24.70
2022-09-02T18:20:13.274Z,24.69
2022-09-02T18:23:09.942Z,24.66
2022-09-02T18:25:51.595Z,24.64
2022-09-02T18:28:30.151Z,24.61
2022-09-02T18:31:12.429Z,24.59
2022-09-02T18:33:56.005Z,24.55
2022-09-02T18:36:35.785Z,24.53
2022-09-02T18:39:19.070Z,24.51
2022-09-02T18:42:01.907Z,24.49
2022-09-02T18:44:39.104Z,24.46
2022-09-02T18:47:14.363Z,24.44
2022-09-02T18:49:44.647Z,24.42
2022-09-02T18:52:12.714Z,24.40
2022-09-02T18:54:47.086Z,24.39
2022-09-02T18:57:16.096Z,24.36
2022-09-02T18:59:50.984Z,24.35
2022-09-02T19:02:29.286Z,24.32
2022-09-02T19:04:59.101Z,24.32
2022-09-02T19:07:46.556Z,24.30
2022-09-02T19:10:14.719Z,24.27
2022-09-02T19:12:43.703Z,24.26
2022-09-02T19:15:13.424Z,24.24
2022-09-02T19:17:43.009Z,24.23
2022-09-02T19:20:11.138Z,24.22
2022-09-02T19:22:41.984Z,24.20
2022-09-02T19:25:13.273Z,24.19
2022-09-02T19:27:44.761Z,24.19
2022-09-02T19:30:14.818Z,24.15
2022-09-02T19:32:47.554Z,24.17
2022-09-02T19:35:18.173Z,24.16
2022-09-02T19:37:47.113Z,24.16
2022-09-02T19:40:19.584Z,24.15
2022-09-02T19:42:47.490Z,24.15
2022-09-02T19:45:16.799Z,24.11
2022-09-02T19:50:34.598Z,24.11
2022-09-02T19:53:02.714Z,24.09
2022-09-02T19:55:33.530Z,24.08
2022-09-02T19:58:01.288Z,24.06
2022-09-02T20:00:29.083Z,24.06
2022-09-02T20:02:58.156Z,24.03
2022-09-02T20:05:26.009Z,24.02
2022-09-02T20:07:53.788Z,24.01
2022-09-02T20:10:22.598Z,23.99
2022-09-02T20:12:56.205Z,23.97
2022-09-02T20:15:23.964Z,23.95
2022-09-02T20:17:51.669Z,23.94
2022-09-02T20:20:23.858Z,23.91
2022-09-02T20:22:56.101Z,23.90
2022-09-02T20:25:33.517Z,23.88
2022-09-02T20:28:13.871Z,23.87
2022-09-02T20:30:48.606Z,23.85
2022-09-02T20:33:19.299Z,23.83
2022-09-02T20:36:02.494Z,23.81
2022-09-02T20:38:58.133Z,23.78
2022-09-02T20:41:33.899Z,23.75
2022-09-02T20:44:23.694Z,23.73
2022-09-02T20:47:05.748Z,23.72
2022-09-02T20:49:53.984Z,23.69
2022-09-02T20:52:31.386Z,23.67
2022-09-02T20:55:05.845Z,23.64
2022-09-02T20:57:48.474Z,23.62
2022-09-02T21:00:20.451Z,23.61
2022-09-02T21:02:55.961Z,23.58
2022-09-02T21:05:29.123Z,23.56
2022-09-02T21:08:05.329Z,23.54
2022-09-02T21:10:37.305Z,23.52
2022-09-02T21:13:11.164Z,23.51
2022-09-02T21:15:45.829Z,23.49
2022-09-02T21:18:20.111Z,23.48
2022-09-02T21:20:54.039Z,23.48
2022-09-02T21:23:28.389Z,23.47
2022-09-02T21:25:57.979Z,23.46
2022-09-02T21:28:33.687Z,23.47
2022-09-02T21:31:06.136Z,23.45
2022-09-02T21:33:36.170Z,23.44
2022-09-02T21:36:06.147Z,23.42
2022-09-02T21:38:40.503Z,23.42
2022-09-02T21:41:21.375Z,23.41
2022-09-02T21:43:56.678Z,23.40
2022-09-02T21:46:33.232Z,23.39
2022-09-02T21:49:10.669Z,23.36
2022-09-02T21:51:46.717Z,23.32
2022-09-02T21:54:35.219Z,23.33
2022-09-02T21:57:20.000Z,23.32
2022-09-02T22:00:01.474Z,23.29
2022-09-02T22:02:38.797Z,23.29
2022-09-02T22:05:21.050Z,23.27
2022-09-02T22:07:51.614Z,23.25
2022-09-02T22:10:29.220Z,23.20
2022-09-02T22:13:03.433Z,23.21
2022-09-02T22:15:43.473Z,23.15
2022-09-02T22:18:20.909Z,23.16
2022-09-02T22:20:52.226Z,23.13
2022-09-02T22:23:26.206Z,23.12
2022-09-02T22:25:56.147Z,23.10
2022-09-02T22:28:32.401Z,23.07
2022-09-02T22:31:05.546Z,23.02
2022-09-02T22:33:40.414Z,23.03
2022-09-02T22:36:18.158Z,23.01
2022-09-02T22:38:49.705Z,22.98
2022-09-02T22:41:26.168Z,22.96
2022-09-02T22:43:56.486Z,22.95
2022-09-02T22:46:53.932Z,22.92
2022-09-02T22:49:45.380Z,22.89
2022-09-02T22:52:44.928Z,22.88
2022-09-02T22:55:13.930Z,22.85
2022-09-02T22:57:52.248Z,22.84
2022-09-02T23:00:20.695Z,22.73
2022-09-02T23:03:01.794Z,22.80
2022-09-02T23:05:44.959Z,22.78
2022-09-02T23:08:14.304Z,22.75
2022-09-02T23:10:48.899Z,22.72
2022-09-02T23:13:24.771Z,22.71
2022-09-02T23:16:04.694Z,22.70
2022-09-02T23:18:42.990Z,22.61
2022-09-02T23:21:17.781Z,22.69
2022-09-02T23:23:55.755Z,22.67
2022-09-02T23:26:35.358Z,22.66
2022-09-02T23:29:15.684Z,22.64
2022-09-02T23:32:00.428Z,22.64
2022-09-02T23:34:43.644Z,22.59
2022-09-02T23:37:17.895Z,22.59
2022-09-02T23:39:57.873Z,22.57
2022-09-02T23:42:25.989Z,22.56
2022-09-02T23:45:01.450Z,22.55
2022-09-02T23:47:42.500Z,22.53
2022-09-02T23:50:21.311Z,22.52
2022-09-02T23:52:56.590Z,22.51
2022-09-02T23:55:41.344Z,22.50
2022-09-02T23:58:28.206Z,22.48
